Time;durP1;ratioP1;P1;durP2;ratioP2;P2;SDS_P1;SDS_P2;PMS_P1;PMS_P2;Temp;Humidity;BMP_temperature;BMP_pressure;BME280_temperature;BME280_humidity;BME280_pressure;Samples;Min_cycle;Max_cycle;Signal;HPM_P1;HPM_P2
2021/10/24 00:02:01;;;;;;;9.15;3.27;;;;;;;8.09;55.78;100835.54;1752300;82;21137;-68
2021/10/24 00:04:31;;;;;;;8.90;3.50;;;;;;;8.08;55.68;100829.74;1752374;82;21006;-70
2021/10/24 00:07:00;;;;;;;7.40;3.45;;;;;;;8.09;55.73;100836.91;1752510;82;21018;-68
2021/10/24 00:09:29;;;;;;;7.22;3.55;;;;;;;8.09;55.71;100834.18;1752267;82;21508;-67
2021/10/24 00:11:59;;;;;;;13.80;4.10;;;;;;;8.08;55.80;100832.47;1752159;82;21002;-69
2021/10/24 00:14:28;;;;;;;8.90;3.20;;;;;;;8.07;55.95;100831.62;1752525;81;21152;-69
2021/10/24 00:16:57;;;;;;;10.45;3.45;;;;;;;8.06;55.97;100823.61;1752472;82;21010;-69
2021/10/24 00:19:26;;;;;;;9.03;3.22;;;;;;;8.07;56.02;100826.16;1752241;82;21468;-70
2021/10/24 00:21:56;;;;;;;7.05;3.25;;;;;;;8.08;56.04;100827.86;1752323;82;21600;-67
2021/10/24 00:24:25;;;;;;;9.83;3.70;;;;;;;8.07;56.11;100825.31;1752401;82;21450;-69
2021/10/24 00:26:55;;;;;;;8.78;3.50;;;;;;;8.09;56.17;100821.38;1752173;82;21029;-70
2021/10/24 00:29:23;;;;;;;10.88;3.55;;;;;;;8.09;56.15;100825.48;1752395;81;21453;-70
2021/10/24 00:31:52;;;;;;;7.53;3.72;;;;;;;8.08;56.35;100817.46;1752569;82;21046;-70
2021/10/24 00:34:20;;;;;;;6.55;3.15;;;;;;;8.06;56.48;100821.73;1752507;81;21127;-68
2021/10/24 00:36:50;;;;;;;10.15;3.15;;;;;;;8.05;56.50;100829.58;1752392;81;21038;-69
2021/10/24 00:39:18;;;;;;;8.05;3.55;;;;;;;8.06;56.64;100836.73;1755727;81;21120;-69
2021/10/24 00:41:47;;;;;;;6.55;3.25;;;;;;;8.05;56.75;100829.58;1756326;82;21452;-67
2021/10/24 00:44:27;;;;;;;8.10;2.92;;;;;;;8.03;56.76;100827.53;1739658;82;21010;-68
2021/10/24 00:46:57;;;;;;;7.50;3.42;;;;;;;8.05;56.88;100830.09;1756394;82;21219;-67
2021/10/24 00:49:26;;;;;;;9.53;3.17;;;;;;;8.06;56.97;100829.91;1739277;82;21482;-68
2021/10/24 00:51:54;;;;;;;10.50;3.58;;;;;;;8.04;57.04;100831.11;1755986;82;21175;-70
2021/10/24 00:54:27;;;;;;;8.85;3.25;;;;;;;8.03;57.09;100835.72;1739780;82;21070;-67
2021/10/24 00:56:57;;;;;;;7.12;3.40;;;;;;;8.04;57.26;100835.20;1755946;81;21199;-69
2021/10/24 00:59:26;;;;;;;8.45;3.70;;;;;;;8.03;57.34;100847.14;1756216;82;21457;-68
2021/10/24 01:01:55;;;;;;;8.65;3.55;;;;;;;8.02;57.57;100842.19;1756089;82;21033;-68
2021/10/24 01:04:24;;;;;;;8.50;3.72;;;;;;;8.05;57.49;100841.00;1756171;82;21005;-70
2021/10/24 01:06:55;;;;;;;9.08;3.45;;;;;;;8.07;57.54;100841.68;1756222;82;21033;-67
2021/10/24 01:09:24;;;;;;;6.70;3.40;;;;;;;8.11;57.53;100853.45;1755985;81;21146;-68
2021/10/24 01:11:53;;;;;;;7.28;3.45;;;;;;;8.16;57.55;100857.03;1756342;81;21405;-67
2021/10/24 01:14:22;;;;;;;7.30;3.10;;;;;;;8.16;57.53;100859.77;1756293;82;21018;-68
2021/10/24 01:16:51;;;;;;;8.63;3.33;;;;;;;8.19;57.49;100864.37;1756016;82;21096;-68
2021/10/24 01:19:21;;;;;;;6.25;3.22;;;;;;;8.19;57.48;100860.78;1756333;81;21048;-69
2021/10/24 01:21:51;;;;;;;8.55;3.25;;;;;;;8.20;57.63;100857.88;1756054;82;21123;-67
2021/10/24 01:24:19;;;;;;;4.53;2.90;;;;;;;8.15;57.97;100866.25;1755967;82;21527;-66
2021/10/24 01:26:50;;;;;;;5.67;3.08;;;;;;;8.11;58.05;100862.16;1756210;81;21018;-68
2021/10/24 01:29:19;;;;;;;8.85;2.92;;;;;;;8.09;58.13;100866.42;1756315;81;21537;-66
2021/10/24 01:31:48;;;;;;;5.65;2.65;;;;;;;8.09;58.25;100866.92;1755871;81;21464;-69
2021/10/24 01:34:21;;;;;;;7.65;2.90;;;;;;;8.08;58.24;100870.68;1756099;82;21551;-69
2021/10/24 01:36:50;;;;;;;7.25;3.10;;;;;;;8.12;58.31;100881.59;1756393;81;21497;-69
2021/10/24 01:39:19;;;;;;;5.00;2.83;;;;;;;8.08;58.38;100874.77;1733917;82;21061;-68
2021/10/24 01:41:48;;;;;;;6.95;3.17;;;;;;;8.08;58.39;100876.14;1752331;80;21568;-69
2021/10/24 01:44:17;;;;;;;8.18;3.22;;;;;;;8.08;58.43;100873.41;1752579;82;21057;-68
2021/10/24 01:46:46;;;;;;;8.13;2.95;;;;;;;8.10;58.42;100878.19;1752445;80;21021;-70
2021/10/24 01:49:16;;;;;;;8.73;3.52;;;;;;;8.09;58.58;100872.38;1752163;82;21034;-70
2021/10/24 01:51:45;;;;;;;6.40;3.10;;;;;;;8.07;58.77;100865.73;1752482;80;21069;-68
2021/10/24 01:54:14;;;;;;;8.18;3.27;;;;;;;8.02;58.85;100874.94;1752672;80;21442;-69
2021/10/24 01:56:44;;;;;;;9.40;3.20;;;;;;;8.05;58.83;100882.79;1752564;82;21018;-68
2021/10/24 01:59:12;;;;;;;7.72;3.33;;;;;;;8.05;58.88;100876.48;1721661;82;21045;-69
2021/10/24 02:02:02;;;;;;;6.85;2.70;;;;;;;8.05;58.90;100878.70;1727789;82;21866;-69
2021/10/24 02:04:50;;;;;;;6.08;2.87;;;;;;;8.04;58.94;100883.81;1727891;83;21061;-69
2021/10/24 02:07:21;;;;;;;8.20;2.95;;;;;;;8.05;58.98;100886.03;1740354;82;21004;-69
2021/10/24 02:09:50;;;;;;;5.30;2.80;;;;;;;8.06;58.92;100887.73;1752658;82;21089;-70
2021/10/24 02:12:21;;;;;;;5.22;3.00;;;;;;;8.05;58.91;100882.79;1752416;82;21015;-69
2021/10/24 02:14:50;;;;;;;6.70;2.87;;;;;;;8.08;58.95;100891.15;1752360;82;21049;-69
2021/10/24 02:17:19;;;;;;;7.83;2.90;;;;;;;8.06;58.94;100883.64;1752899;82;21430;-69
2021/10/24 02:19:49;;;;;;;7.28;2.72;;;;;;;8.07;58.96;100893.53;1752470;82;21053;-69
2021/10/24 02:22:19;;;;;;;7.78;3.15;;;;;;;8.08;58.90;100897.46;1752414;82;21029;-67
2021/10/24 02:24:47;;;;;;;8.18;3.00;;;;;;;8.13;58.93;100901.90;1752541;82;21021;-68
2021/10/24 02:27:18;;;;;;;6.97;2.80;;;;;;;8.08;59.00;100905.65;1752523;82;21049;-69
2021/10/24 02:29:46;;;;;;;7.65;2.77;;;;;;;8.04;59.18;100902.91;1752499;82;21386;-69
2021/10/24 02:32:14;;;;;;;8.18;2.80;;;;;;;8.04;59.31;100910.25;1752369;82;21053;-69
2021/10/24 02:34:48;;;;;;;5.65;2.30;;;;;;;7.97;59.41;100909.22;1751756;82;21038;-69
2021/10/24 02:37:28;;;;;;;6.80;2.80;;;;;;;7.97;59.59;100914.67;1752269;82;21034;-69
2021/10/24 02:39:57;;;;;;;7.30;2.60;;;;;;;7.97;59.50;100918.26;1752484;81;21481;-70
2021/10/24 02:42:27;;;;;;;9.88;3.08;;;;;;;7.94;59.68;100905.80;1752412;82;21438;-69
2021/10/24 02:44:57;;;;;;;6.58;3.10;;;;;;;7.88;59.80;100907.84;1752550;82;21511;-67
2021/10/24 02:47:26;;;;;;;7.70;2.80;;;;;;;7.85;59.88;100915.00;1752356;81;21445;-69
2021/10/24 02:49:54;;;;;;;8.08;2.77;;;;;;;7.86;60.02;100907.16;1752503;80;21037;-68
2021/10/24 02:52:23;;;;;;;6.60;2.83;;;;;;;7.86;59.99;100908.52;1752275;82;21140;-68
2021/10/24 02:54:53;;;;;;;8.03;3.20;;;;;;;7.86;60.11;100911.76;1752456;82;20994;-68
2021/10/24 02:57:22;;;;;;;6.60;3.12;;;;;;;7.82;60.20;100918.06;1752413;82;21312;-68
2021/10/24 02:59:53;;;;;;;6.65;2.92;;;;;;;7.78;60.29;100918.53;1752584;82;21006;-67
2021/10/24 03:02:23;;;;;;;5.65;2.67;;;;;;;7.76;60.48;100920.57;1752507;82;21013;-68
2021/10/24 03:04:53;;;;;;;8.30;3.08;;;;;;;7.71;60.54;100919.70;1752620;82;21457;-68
2021/10/24 03:07:22;;;;;;;6.95;3.00;;;;;;;7.69;60.64;100928.56;1752489;82;21455;-68
2021/10/24 03:09:51;;;;;;;6.28;3.00;;;;;;;7.68;60.70;100923.28;1752238;81;21010;-68
2021/10/24 03:12:20;;;;;;;10.90;3.17;;;;;;;7.67;60.78;100924.30;1752585;81;21442;-67
2021/10/24 03:14:51;;;;;;;7.55;3.05;;;;;;;7.66;60.81;100922.59;1752282;82;21091;-67
2021/10/24 03:17:20;;;;;;;12.43;3.40;;;;;;;7.68;60.78;100930.09;1752681;82;21473;-67
2021/10/24 03:19:51;;;;;;;10.15;3.55;;;;;;;7.70;60.76;100924.81;1752404;82;21450;-68
2021/10/24 03:22:20;;;;;;;6.92;2.90;;;;;;;7.72;60.71;100924.66;1752329;80;21507;-69
2021/10/24 03:24:49;;;;;;;9.30;3.12;;;;;;;7.72;60.73;100933.69;1752373;82;21496;-67
2021/10/24 03:27:19;;;;;;;7.33;3.05;;;;;;;7.73;60.70;100926.36;1752266;82;20998;-68
2021/10/24 03:29:49;;;;;;;9.35;3.45;;;;;;;7.73;60.66;100925.84;1752643;80;21010;-69
2021/10/24 03:32:18;;;;;;;9.05;3.42;;;;;;;7.74;60.64;100933.02;1752777;82;21034;-69
2021/10/24 03:34:47;;;;;;;8.55;3.33;;;;;;;7.73;60.71;100933.18;1752160;82;21049;-69
2021/10/24 03:37:15;;;;;;;9.63;3.15;;;;;;;7.67;60.82;100940.66;1751984;82;21053;-69
2021/10/24 03:39:45;;;;;;;11.28;3.02;;;;;;;7.63;60.96;100936.91;1751808;81;21030;-70
2021/10/24 03:42:14;;;;;;;9.95;3.42;;;;;;;7.65;60.96;100942.19;1752658;81;21069;-69
2021/10/24 03:44:44;;;;;;;8.98;3.52;;;;;;;7.64;61.12;100941.84;1752432;82;21465;-69
2021/10/24 03:47:13;;;;;;;8.08;3.20;;;;;;;7.61;61.13;100944.91;1752385;82;21025;-68
2021/10/24 03:49:43;;;;;;;7.75;3.37;;;;;;;7.61;61.13;100948.48;1752438;82;21623;-68
2021/10/24 03:52:11;;;;;;;8.20;3.42;;;;;;;7.64;61.12;100944.58;1752068;82;21121;-69
2021/10/24 03:54:40;;;;;;;6.67;3.20;;;;;;;7.64;61.10;100947.30;1751641;81;21120;-69
2021/10/24 03:57:07;;;;;;;7.97;3.30;;;;;;;7.64;61.10;100949.52;1752341;82;21469;-70
2021/10/24 03:59:39;;;;;;;6.80;3.47;;;;;;;7.64;61.16;100953.61;1752297;82;21049;-69
2021/10/24 04:02:08;;;;;;;10.25;3.67;;;;;;;7.61;61.24;100955.81;1752236;81;20998;-69
2021/10/24 04:04:38;;;;;;;7.40;3.47;;;;;;;7.58;61.24;100962.96;1752587;81;21683;-69
2021/10/24 04:07:07;;;;;;;6.87;3.00;;;;;;;7.58;61.41;100961.59;1745406;81;21144;-68
2021/10/24 04:09:37;;;;;;;9.43;3.58;;;;;;;7.55;61.50;100961.42;1752003;82;21867;-69
2021/10/24 04:12:06;;;;;;;8.88;3.65;;;;;;;7.54;61.56;100963.80;1752480;82;21140;-69
2021/10/24 04:14:37;;;;;;;10.03;3.70;;;;;;;7.53;61.57;100951.70;1752336;82;21074;-69
2021/10/24 04:17:05;;;;;;;14.15;4.47;;;;;;;7.53;61.66;100959.88;1752468;82;21060;-68
2021/10/24 04:19:37;;;;;;;9.35;3.95;;;;;;;7.51;61.67;100964.12;1752014;82;21560;-69
2021/10/24 04:22:06;;;;;;;10.08;3.77;;;;;;;7.54;61.61;100967.89;1752653;80;21473;-67
2021/10/24 04:24:37;;;;;;;8.20;3.58;;;;;;;7.55;61.65;100970.11;1752291;82;21109;-70
2021/10/24 04:27:05;;;;;;;5.60;2.60;;;;;;;7.52;61.66;100971.80;1752915;80;21073;-68
2021/10/24 04:29:34;;;;;;;10.15;4.20;;;;;;;7.52;61.73;100973.16;1752355;82;21022;-69
2021/10/24 04:32:04;;;;;;;7.00;2.92;;;;;;;7.52;61.69;100964.98;1752065;82;20986;-69
2021/10/24 04:34:33;;;;;;;10.23;3.62;;;;;;;7.55;61.70;100972.84;1752493;80;21486;-70
2021/10/24 04:37:03;;;;;;;11.83;4.08;;;;;;;7.59;61.70;100975.06;1752716;81;21633;-69
2021/10/24 04:39:33;;;;;;;11.70;3.47;;;;;;;7.60;61.66;100975.92;1731864;81;21164;-70
2021/10/24 04:42:01;;;;;;;6.97;3.30;;;;;;;7.54;61.70;100981.52;1722497;82;21505;-70
2021/10/24 04:44:31;;;;;;;15.23;3.72;;;;;;;7.51;61.77;100987.30;1722959;83;21204;-69
2021/10/24 04:47:00;;;;;;;6.80;3.20;;;;;;;7.51;61.80;100988.67;1722463;83;21775;-69
2021/10/24 04:49:29;;;;;;;10.90;3.40;;;;;;;7.49;61.90;100988.48;1722503;82;21575;-69
2021/10/24 04:51:59;;;;;;;8.48;3.33;;;;;;;7.48;61.98;100993.59;1722605;82;21093;-69
2021/10/24 04:54:28;;;;;;;8.75;3.45;;;;;;;7.44;62.13;100988.12;1722802;82;21498;-69
2021/10/24 04:56:56;;;;;;;7.95;3.35;;;;;;;7.44;62.09;100993.06;1722460;82;21491;-68
2021/10/24 04:59:24;;;;;;;10.53;3.42;;;;;;;7.44;62.23;100994.43;1722762;83;21184;-69
2021/10/24 05:01:53;;;;;;;7.78;3.50;;;;;;;7.42;62.36;100998.34;1722603;82;21057;-69
2021/10/24 05:04:22;;;;;;;6.65;3.00;;;;;;;7.39;62.39;100998.16;1717704;82;21766;-68
2021/10/24 05:06:51;;;;;;;8.10;3.45;;;;;;;7.39;62.50;101001.39;1722683;82;21216;-70
2021/10/24 05:09:20;;;;;;;9.85;3.52;;;;;;;7.40;62.45;100997.14;1722489;82;21053;-69
2021/10/24 05:11:50;;;;;;;9.75;3.40;;;;;;;7.42;62.44;101004.64;1722472;83;21058;-68
2021/10/24 05:14:20;;;;;;;8.95;3.20;;;;;;;7.46;62.42;101010.63;1722359;82;21147;-68
2021/10/24 05:16:49;;;;;;;6.37;3.00;;;;;;;7.50;62.35;101016.10;1722438;82;21486;-68
2021/10/24 05:19:18;;;;;;;9.55;2.80;;;;;;;7.53;62.31;101022.59;1722718;82;21025;-70
2021/10/24 05:21:47;;;;;;;9.55;3.58;;;;;;;7.57;62.21;101022.10;1722518;82;21562;-70
2021/10/24 05:24:16;;;;;;;8.73;3.37;;;;;;;7.59;62.14;101034.21;1722668;82;21026;-70
2021/10/24 05:26:45;;;;;;;8.28;3.20;;;;;;;7.56;62.15;101032.66;1722835;83;21216;-70
2021/10/24 05:29:13;;;;;;;11.18;3.35;;;;;;;7.51;62.22;101040.48;1722654;82;21550;-69
2021/10/24 05:31:43;;;;;;;9.55;3.45;;;;;;;7.52;62.29;101049.52;1717423;82;21180;-69
2021/10/24 05:34:17;;;;;;;9.90;3.72;;;;;;;7.53;62.31;101048.50;1722591;82;21465;-70
2021/10/24 05:36:54;;;;;;;7.57;3.43;;;;;;;7.55;62.21;101050.05;1722865;82;21034;-69
2021/10/24 05:39:24;;;;;;;8.58;3.58;;;;;;;7.58;62.12;101060.63;1731915;81;21037;-69
2021/10/24 05:41:54;;;;;;;10.50;4.20;;;;;;;7.60;62.07;101061.32;1739169;81;21208;-68
2021/10/24 05:44:23;;;;;;;9.45;3.35;;;;;;;7.64;61.94;101061.34;1756342;82;21060;-69
2021/10/24 05:46:55;;;;;;;7.17;2.90;;;;;;;7.66;61.93;101073.95;1756354;81;21056;-69
2021/10/24 05:49:26;;;;;;;8.50;3.45;;;;;;;7.65;62.00;101073.11;1755989;81;21064;-67
2021/10/24 05:51:55;;;;;;;6.87;3.55;;;;;;;7.66;62.01;101080.27;1756192;81;21049;-69
2021/10/24 05:54:24;;;;;;;8.28;3.40;;;;;;;7.66;62.00;101074.81;1756416;81;21037;-70
2021/10/24 05:56:53;;;;;;;8.50;3.33;;;;;;;7.66;61.89;101077.55;1755899;81;20977;-70
2021/10/24 05:59:25;;;;;;;8.93;3.35;;;;;;;7.69;61.85;101086.77;1755875;79;21033;-69
2021/10/24 06:02:13;;;;;;;8.23;3.17;;;;;;;7.70;61.76;101084.89;1756478;81;21402;-70
2021/10/24 06:04:59;;;;;;;9.98;3.33;;;;;;;7.71;61.79;101083.88;1756091;81;21456;-68
2021/10/24 06:07:32;;;;;;;8.03;3.10;;;;;;;7.73;61.64;101088.15;1756133;81;21056;-70
2021/10/24 06:10:13;;;;;;;9.50;3.37;;;;;;;7.70;61.76;101093.08;1664673;85;21104;-68
2021/10/24 06:12:43;;;;;;;8.28;3.35;;;;;;;7.64;62.37;101102.76;1587164;90;21066;-69
2021/10/24 06:15:15;;;;;;;7.67;3.10;;;;;;;7.59;63.30;101111.42;1571145;91;21240;-70
2021/10/24 06:17:45;;;;;;;6.85;3.27;;;;;;;7.59;64.71;101113.30;1571231;91;21145;-70
2021/10/24 06:20:14;;;;;;;9.60;3.47;;;;;;;7.57;64.96;101108.52;1571209;91;21204;-69
2021/10/24 06:22:43;;;;;;;6.78;3.02;;;;;;;7.55;65.16;101115.49;1571216;91;21229;-70
2021/10/24 06:25:15;;;;;;;7.58;3.45;;;;;;;7.54;65.28;101120.59;1571397;91;21125;-67
2021/10/24 06:27:45;;;;;;;6.83;2.98;;;;;;;7.52;65.70;101113.59;1596180;87;21144;-69
2021/10/24 06:30:17;;;;;;;7.95;4.00;;;;;;;7.53;65.32;101119.40;1690960;82;21168;-68
2021/10/24 06:33:00;;;;;;;9.25;3.85;;;;;;;7.58;65.64;101125.22;1756457;81;21041;-69
2021/10/24 06:35:47;;;;;;;8.48;3.12;;;;;;;7.62;65.33;101130.20;1740042;82;21552;-68
2021/10/24 06:38:19;;;;;;;8.45;3.60;;;;;;;7.64;65.20;101124.58;1730036;82;21487;-70
2021/10/24 06:40:51;;;;;;;11.68;4.75;;;;;;;7.69;65.23;101130.91;1735474;81;21077;-69
2021/10/24 06:43:21;;;;;;;9.63;3.98;;;;;;;7.70;65.12;101134.84;1752447;82;21049;-69
2021/10/24 06:46:08;;;;;;;7.12;3.10;;;;;;;7.65;65.25;101138.56;1752329;82;21080;-70
2021/10/24 06:48:39;;;;;;;6.72;3.10;;;;;;;7.66;65.37;101143.00;1753803;80;21446;-69
2021/10/24 06:51:10;;;;;;;5.58;2.72;;;;;;;7.66;65.10;101138.05;1752237;81;21017;-70
2021/10/24 06:53:54;;;;;;;5.47;2.92;;;;;;;7.69;65.03;101146.77;1752534;82;21013;-68
2021/10/24 06:56:41;;;;;;;6.25;2.80;;;;;;;7.74;64.64;101156.69;1752856;81;21529;-70
2021/10/24 06:59:27;;;;;;;7.08;2.52;;;;;;;7.80;64.48;101153.83;1728009;82;21543;-70
2021/10/24 07:02:03;;;;;;;6.42;2.40;;;;;;;7.86;63.35;101162.25;1713471;82;21137;-70
2021/10/24 07:04:51;;;;;;;5.17;2.25;;;;;;;7.86;63.10;101162.25;1670651;85;21037;-67
2021/10/24 07:07:23;;;;;;;4.40;2.12;;;;;;;7.86;62.92;101165.49;1680280;85;21086;-69
2021/10/24 07:10:00;;;;;;;3.90;1.80;;;;;;;7.87;62.81;101163.97;1655786;86;21082;-70
2021/10/24 07:12:28;;;;;;;3.65;1.35;;;;;;;7.90;62.13;101174.56;1655657;86;21087;-70
2021/10/24 07:14:58;;;;;;;2.52;1.20;;;;;;;7.91;61.67;101172.69;1695504;84;21157;-70
2021/10/24 07:17:26;;;;;;;3.70;1.52;;;;;;;7.91;61.35;101180.36;1662277;86;21595;-69
2021/10/24 07:19:55;;;;;;;3.45;1.60;;;;;;;7.90;61.33;101177.80;1661933;86;21602;-70
2021/10/24 07:22:26;;;;;;;5.70;2.15;;;;;;;7.90;61.28;101174.56;1661613;86;21167;-70
2021/10/24 07:25:00;;;;;;;2.40;1.55;;;;;;;7.85;61.36;101180.15;1661726;86;21074;-68
2021/10/24 07:27:38;;;;;;;7.17;2.08;;;;;;;7.86;61.50;101184.09;1661633;86;21078;-70
2021/10/24 07:30:08;;;;;;;4.37;1.72;;;;;;;7.88;61.37;101178.47;1713765;83;21185;-69
2021/10/24 07:32:39;;;;;;;2.85;1.75;;;;;;;7.87;61.49;101177.61;1752181;80;21065;-69
2021/10/24 07:35:26;;;;;;;2.58;1.80;;;;;;;7.90;61.61;101180.52;1752589;82;21046;-68
2021/10/24 07:37:57;;;;;;;4.03;1.80;;;;;;;7.99;61.50;101191.83;1752527;82;21137;-69
2021/10/24 07:40:28;;;;;;;2.25;1.50;;;;;;;8.05;61.15;101185.73;1752989;80;21113;-69
2021/10/24 07:42:57;;;;;;;5.42;1.35;;;;;;;8.13;61.21;101185.77;1739772;82;21093;-69
2021/10/24 07:45:25;;;;;;;7.35;1.52;;;;;;;8.31;60.69;101192.52;1756392;81;21068;-71
2021/10/24 07:47:56;;;;;;;3.95;1.52;;;;;;;8.46;60.14;101190.94;1756771;82;21136;-69
2021/10/24 07:50:28;;;;;;;3.65;1.98;;;;;;;8.53;59.50;101196.08;1753331;81;21538;-71
2021/10/24 07:52:55;;;;;;;4.28;1.50;;;;;;;8.56;58.95;101191.66;1756285;82;21025;-71
2021/10/24 07:55:26;;;;;;;2.85;1.70;;;;;;;8.54;58.72;101196.42;1755995;81;21034;-71
2021/10/24 07:57:56;;;;;;;4.30;1.70;;;;;;;8.55;58.52;101200.87;1756244;82;21013;-71
2021/10/24 08:00:26;;;;;;;5.20;1.80;;;;;;;8.56;58.39;101200.36;1755800;82;21026;-72
2021/10/24 08:02:56;;;;;;;2.77;1.37;;;;;;;8.55;58.45;101196.77;1756179;81;21163;-70
2021/10/24 08:05:26;;;;;;;4.30;1.85;;;;;;;8.56;58.39;101198.99;1756352;82;21036;-70
2021/10/24 08:08:02;;;;;;;3.70;1.90;;;;;;;8.56;58.51;101199.84;1755440;81;21062;-81
2021/10/24 08:10:52;;;;;;;5.40;1.82;;;;;;;8.61;58.62;101202.59;1745550;81;21100;-74
2021/10/24 08:16:24;;;;;;;3.72;1.72;;;;;;;8.57;58.08;101211.12;1740484;82;21005;-75
2021/10/24 08:18:53;;;;;;;2.95;1.95;;;;;;;8.54;57.71;101220.16;1740007;82;21572;-76
2021/10/24 08:21:27;;;;;;;4.37;1.90;;;;;;;8.51;57.36;101224.58;1761669;81;21506;-75
2021/10/24 08:23:56;;;;;;;4.08;1.52;;;;;;;8.53;57.39;101217.94;1761457;81;21244;-77
2021/10/24 08:26:25;;;;;;;5.72;1.85;;;;;;;8.65;57.48;101221.73;1774872;81;21199;-75
2021/10/24 08:28:54;;;;;;;3.70;1.50;;;;;;;8.80;57.01;101215.98;1773751;81;21024;-76
2021/10/24 08:31:49;;;;;;;3.40;1.40;;;;;;;8.95;56.85;101224.39;1770392;80;21012;-78
2021/10/24 08:34:14;;;;;;;5.33;1.55;;;;;;;9.08;56.19;101228.34;1761300;80;21608;-75
2021/10/24 08:36:43;;;;;;;5.17;1.70;;;;;;;9.14;55.80;101223.61;1730268;83;21111;-77
2021/10/24 08:39:11;;;;;;;3.02;1.10;;;;;;;9.17;55.19;101229.25;1762112;81;21918;-73
2021/10/24 08:41:40;;;;;;;5.10;1.40;;;;;;;9.11;54.17;101241.71;1729181;83;21103;-74
2021/10/24 08:44:15;;;;;;;3.45;1.30;;;;;;;9.01;54.29;101233.28;1753878;81;21117;-76
2021/10/24 08:46:45;;;;;;;3.37;1.55;;;;;;;8.94;54.36;101227.63;1759687;81;21161;-77
2021/10/24 08:49:14;;;;;;;4.35;2.00;;;;;;;8.92;53.92;101241.97;1772347;81;21070;-78
2021/10/24 08:51:42;;;;;;;5.37;2.05;;;;;;;8.90;53.63;101238.55;1772781;81;21160;-76
2021/10/24 08:54:13;;;;;;;5.40;1.75;;;;;;;8.86;53.91;101238.03;1773291;81;21031;-77
2021/10/24 08:56:41;;;;;;;3.50;1.17;;;;;;;8.85;54.16;101242.30;1773738;81;21131;-75
2021/10/24 08:59:10;;;;;;;3.05;1.22;;;;;;;8.87;53.98;101240.25;1773529;81;21187;-67
2021/10/24 09:01:53;;;;;;;3.55;1.40;;;;;;;8.92;55.53;101241.12;1773468;81;21455;-79
2021/10/24 09:04:22;;;;;;;2.60;1.30;;;;;;;9.05;55.42;101237.39;1771081;81;21567;-83
2021/10/24 09:07:00;;;;;;;5.15;1.80;;;;;;;9.15;54.43;101243.09;1773691;81;21505;-77
2021/10/24 09:09:34;;;;;;;4.87;1.82;;;;;;;9.19;53.65;101244.97;1773435;81;21058;-77
2021/10/24 09:12:09;;;;;;;4.00;1.52;;;;;;;9.20;53.81;101247.54;1775335;80;21188;-75
2021/10/24 09:14:55;;;;;;;4.15;1.30;;;;;;;9.24;53.42;101252.67;1775268;81;21023;-73
2021/10/24 09:17:30;;;;;;;3.77;1.10;;;;;;;9.19;53.34;101255.40;1775665;81;21054;-65
2021/10/24 09:20:03;;;;;;;3.12;0.60;;;;;;;9.01;56.79;101295.64;1759097;81;21046;-80
2021/10/24 09:22:38;;;;;;;2.72;0.70;;;;;;;8.76;57.94;101300.16;1739368;82;21046;-80
2021/10/24 09:25:19;;;;;;;6.75;2.12;;;;;;;8.47;60.47;101293.70;1739842;82;21030;-80
2021/10/24 09:28:00;;;;;;;2.37;1.00;;;;;;;8.15;61.58;101286.10;1740305;82;21652;-85
2021/10/24 09:30:38;;;;;;;2.85;1.17;;;;;;;7.90;62.07;101288.30;1740508;82;21013;-84
2021/10/24 09:33:11;;;;;;;3.00;1.00;;;;;;;7.79;63.09;101285.80;1740345;82;21085;-82
2021/10/24 09:35:46;;;;;;;2.45;1.07;;;;;;;7.75;63.88;101293.44;1739994;82;21041;-82
2021/10/24 09:38:17;;;;;;;3.12;1.22;;;;;;;7.72;63.43;101288.81;1740132;82;21034;-83
2021/10/24 09:40:55;;;;;;;4.22;1.50;;;;;;;7.73;64.27;101289.16;1727635;82;21045;-80
2021/10/24 09:43:34;;;;;;;5.30;1.80;;;;;;;7.76;63.86;101293.80;1710021;84;21512;-74
2021/10/24 09:49:10;;;;;;;;;;;;;;;7.71;64.24;101295.28;1760566;80;21520;-73
2021/10/24 09:51:39;;;;;;;3.35;1.80;;;;;;;7.70;65.44;101293.06;1795077;80;20164;-73
2021/10/24 09:54:24;;;;;;;4.00;1.80;;;;;;;7.67;64.96;101300.70;1796290;80;21061;-75
2021/10/24 09:56:53;;;;;;;3.83;1.80;;;;;;;7.70;64.98;101290.33;1795885;80;21750;-73
2021/10/24 09:59:23;;;;;;;3.42;2.00;;;;;;;7.81;64.75;101287.39;1785478;80;21477;-72
2021/10/24 10:01:53;;;;;;;4.35;2.17;;;;;;;7.82;64.65;101287.73;1785555;80;21002;-75
2021/10/24 10:04:24;;;;;;;6.85;2.25;;;;;;;7.84;65.23;101285.70;1785694;80;21065;-75
2021/10/24 10:06:53;;;;;;;4.92;1.87;;;;;;;7.90;65.11;101289.16;1785589;80;21505;-73
2021/10/24 10:09:21;;;;;;;4.12;1.92;;;;;;;7.93;65.42;101279.80;1785532;80;21073;-75
2021/10/24 10:11:57;;;;;;;4.72;2.20;;;;;;;7.94;64.94;101278.28;1785569;80;21061;-74
2021/10/24 10:14:31;;;;;;;;;;;;;;;7.98;65.27;101292.97;1788398;80;21050;-73
2021/10/24 10:17:05;;;;;;;3.08;1.47;;;;;;;8.02;64.83;101288.40;1785664;80;20207;-76
2021/10/24 10:19:42;;;;;;;3.60;1.72;;;;;;;8.07;64.79;101289.28;1793010;80;21470;-75
2021/10/24 10:22:30;;;;;;;6.17;1.90;;;;;;;8.11;64.34;101292.90;1796069;80;21066;-76
2021/10/24 10:25:04;;;;;;;2.65;1.45;;;;;;;8.19;64.26;101293.46;1796240;80;21097;-74
2021/10/24 10:27:41;;;;;;;3.05;1.40;;;;;;;8.29;63.71;101290.11;1796014;80;21498;-77
2021/10/24 10:30:34;;;;;;;3.20;1.22;;;;;;;8.31;60.26;101291.31;1796259;80;21504;-81
2021/10/24 10:33:07;;;;;;;2.12;1.40;;;;;;;8.24;59.80;101296.56;1796191;80;21035;-76
2021/10/24 10:35:40;;;;;;;2.12;1.40;;;;;;;8.16;59.93;101299.24;1767208;80;22004;-80
2021/10/24 10:38:16;;;;;;;5.53;1.82;;;;;;;8.13;59.82;101301.78;1795185;80;21066;-80
2021/10/24 10:40:47;;;;;;;2.05;1.40;;;;;;;8.14;60.76;101294.45;1759368;81;21188;-79
2021/10/24 10:43:21;;;;;;;3.40;1.60;;;;;;;8.21;60.21;101298.25;1698151;82;21049;-79
2021/10/24 10:45:59;;;;;;;2.45;1.27;;;;;;;8.24;59.03;101299.30;1730602;82;21046;-78
2021/10/24 10:48:37;;;;;;;3.55;1.40;;;;;;;8.25;58.83;101294.19;1689214;85;21024;-77
2021/10/24 10:51:23;;;;;;;2.83;1.20;;;;;;;8.27;57.97;101297.61;1707682;84;21069;-78
2021/10/24 10:54:05;;;;;;;3.20;1.22;;;;;;;8.31;57.65;101304.46;1707751;82;21067;-80
2021/10/24 10:56:53;;;;;;;2.70;0.90;;;;;;;8.36;56.14;101308.96;1707784;84;21627;-78
2021/10/24 10:59:35;;;;;;;3.15;1.67;;;;;;;8.42;55.42;101297.39;1707589;82;22195;-80
2021/10/24 11:02:30;;;;;;;2.58;1.40;;;;;;;8.48;54.41;101304.97;1707807;82;21198;-79
2021/10/24 11:05:07;;;;;;;2.40;0.88;;;;;;;8.52;54.48;101307.72;1708506;84;21107;-79
2021/10/24 11:07:42;;;;;;;1.65;0.88;;;;;;;8.56;52.09;101300.06;1709026;82;21071;-79
2021/10/24 11:10:17;;;;;;;4.45;1.17;;;;;;;8.53;52.42;101308.07;1710901;82;21553;-77
2021/10/24 11:12:47;;;;;;;2.58;0.70;;;;;;;8.50;51.47;101315.73;1715919;83;21007;-79
2021/10/24 11:15:21;;;;;;;1.62;0.70;;;;;;;8.45;52.33;101309.87;1712867;83;21047;-76
2021/10/24 11:17:50;;;;;;;1.65;0.82;;;;;;;8.40;51.51;101313.09;1704795;84;21498;-78
2021/10/24 11:20:31;;;;;;;4.03;1.45;;;;;;;8.36;52.53;101325.86;1643249;87;21472;-79
2021/10/24 11:23:03;;;;;;;2.30;1.25;;;;;;;8.35;52.48;101313.22;1639973;87;21086;-79
2021/10/24 11:25:36;;;;;;;2.60;1.10;;;;;;;8.34;51.96;101329.25;1688860;85;21111;-80
2021/10/24 11:28:19;;;;;;;2.98;1.35;;;;;;;8.32;52.10;101327.16;1691232;85;21099;-80
2021/10/24 11:31:07;;;;;;;4.95;1.20;;;;;;;8.31;52.22;101329.03;1690395;85;21201;-78
2021/10/24 11:33:52;;;;;;;2.33;1.02;;;;;;;8.33;52.32;101328.87;1691517;85;21568;-80
2021/10/24 11:36:27;;;;;;;2.05;0.82;;;;;;;8.39;53.00;101341.41;1691424;85;21563;-79
2021/10/24 11:39:01;;;;;;;5.67;1.25;;;;;;;8.44;52.47;101336.33;1715470;83;21105;-79
2021/10/24 11:41:30;;;;;;;5.60;1.30;;;;;;;8.43;51.60;101345.53;1698375;83;21062;-78
2021/10/24 11:44:07;;;;;;;5.53;1.42;;;;;;;8.41;51.94;101342.11;1729872;81;21074;-80
2021/10/24 11:46:35;;;;;;;;;;;;;;;8.43;51.95;101355.60;1780950;81;21010;-79
2021/10/24 11:52:31;;;;;;;2.47;0.90;;;;;;;8.47;51.76;101356.52;1780039;80;21113;-79
2021/10/24 11:55:09;;;;;;;2.40;1.10;;;;;;;8.54;51.38;101350.76;1780323;80;21089;-78
2021/10/24 11:58:43;;;;;;;2.00;1.10;;;;;;;8.56;51.42;101350.59;1774856;79;21009;-80
2021/10/24 12:03:25;;;;;;;2.02;0.98;;;;;;;8.65;50.15;101351.50;1767927;80;21082;-79
2021/10/24 12:06:11;;;;;;;1.62;0.82;;;;;;;8.67;49.99;101353.05;1771047;80;21006;-76
2021/10/24 12:08:51;;;;;;;2.17;1.00;;;;;;;8.75;49.79;101356.34;1744463;82;21494;-78
2021/10/24 12:11:42;;;;;;;1.35;0.70;;;;;;;8.85;48.98;101351.61;1744199;82;21050;-78